Time;durP1;ratioP1;P1;durP2;ratioP2;P2;SDS_P1;SDS_P2;PMS_P1;PMS_P2;Temp;Humidity;BMP_temperature;BMP_pressure;BME280_temperature;BME280_humidity;BME280_pressure;Samples;Min_cycle;Max_cycle;Signal;HPM_P1;HPM_P2
2023/04/13 00:03:11;;;;;;;;;;;;;;;4.22;71.21;96937.34;10408488;28;20035;-52
2023/04/13 00:08:09;;;;;;;;;;;;;;;4.18;71.49;96920.16;10408129;28;19951;-53
2023/04/13 00:13:09;;;;;;;;;;;;;;;4.12;71.22;96921.78;10407478;28;19991;-53
2023/04/13 00:18:09;;;;;;;;;;;;;;;4.08;71.11;96914.06;10408200;28;20396;-52
2023/04/13 00:23:08;;;;;;;;;;;;;;;4.06;71.49;96926.03;10408005;28;20417;-52
2023/04/13 00:28:07;;;;;;;;;;;;;;;4.05;71.14;96936.28;10407221;28;19950;-52
2023/04/13 00:33:06;;;;;;;;;;;;;;;3.97;72.04;96936.19;10406210;28;19978;-52
2023/04/13 00:38:05;;;;;;;;;;;;;;;3.77;74.01;96942.78;10405241;28;19916;-51
2023/04/13 00:43:04;;;;;;;;;;;;;;;3.78;73.08;96940.25;10404829;28;20007;-52
2023/04/13 00:48:03;;;;;;;;;;;;;;;3.74;74.24;96938.47;10406135;28;19954;-50
2023/04/13 00:53:03;;;;;;;;;;;;;;;3.78;73.81;96939.38;10405829;28;20467;-51
2023/04/13 00:58:02;;;;;;;;;;;;;;;3.68;74.16;96947.78;10405731;28;20354;-53
2023/04/13 01:03:01;;;;;;;;;;;;;;;3.61;74.04;96936.56;10406146;28;20377;-52
2023/04/13 01:08:18;;;;;;;;;;;;;;;3.53;74.85;96944.19;10406484;28;20296;-51
2023/04/13 01:13:31;;;;;;;;;;;;;;;3.42;74.69;96946.63;10404201;28;20409;-52
2023/04/13 01:18:33;;;;;;;;;;;;;;;3.35;75.04;96949.91;10406645;28;19943;-51
2023/04/13 01:23:40;;;;;;;;;;;;;;;3.18;75.65;96946.25;10405473;28;20384;-52
2023/04/13 01:28:38;;;;;;;;;;;;;;;3.16;75.56;96945.34;10405372;28;19955;-53
2023/04/13 01:33:39;;;;;;;;;;;;;;;3.08;76.69;96940.13;10404257;28;19952;-53
2023/04/13 01:38:38;;;;;;;;;;;;;;;3.11;76.23;96947.84;10405109;28;19962;-52
2023/04/13 01:43:36;;;;;;;;;;;;;;;3.09;76.00;96953.78;10404960;28;19944;-52
2023/04/13 01:48:42;;;;;;;;;;;;;;;3.11;76.10;96954.69;10404791;28;20420;-50
2023/04/13 01:53:42;;;;;;;;;;;;;;;3.08;75.57;96946.97;10404434;28;20370;-52
2023/04/13 01:58:41;;;;;;;;;;;;;;;2.95;76.34;96944.19;10404358;28;19978;-52
2023/04/13 02:03:42;;;;;;;;;;;;;;;2.94;75.99;96939.91;10403341;28;20035;-52
2023/04/13 02:08:40;;;;;;;;;;;;;;;2.88;76.80;96934.69;10404391;28;19948;-52
2023/04/13 02:13:39;;;;;;;;;;;;;;;2.87;76.37;96940.66;10403056;28;19934;-52
2023/04/13 02:18:39;;;;;;;;;;;;;;;2.80;76.89;96949.09;10403552;28;19916;-51
2023/04/13 02:23:39;;;;;;;;;;;;;;;2.77;77.16;96943.91;10402763;28;19962;-52
2023/04/13 02:28:39;;;;;;;;;;;;;;;2.72;76.88;96950.63;10404041;28;20381;-52
2023/04/13 02:33:38;;;;;;;;;;;;;;;2.70;75.96;96952.31;10404768;28;20483;-53
2023/04/13 02:38:37;;;;;;;;;;;;;;;2.57;77.02;96946.13;10402255;28;19955;-52
2023/04/13 02:43:36;;;;;;;;;;;;;;;2.56;76.90;96941.84;10402741;28;19920;-52
2023/04/13 02:48:35;;;;;;;;;;;;;;;2.54;76.41;96943.53;10402333;28;19970;-52
2023/04/13 02:53:34;;;;;;;;;;;;;;;2.39;77.70;96951.78;10402154;28;20003;-52
2023/04/13 02:58:32;;;;;;;;;;;;;;;2.26;78.97;96954.97;10402213;28;20098;-50
2023/04/13 03:03:32;;;;;;;;;;;;;;;2.01;79.34;96951.94;10401329;28;20007;-53
2023/04/13 03:08:30;;;;;;;;;;;;;;;1.77;79.18;96969.34;10402026;28;19978;-50
2023/04/13 03:13:29;;;;;;;;;;;;;;;1.65;79.11;96967.41;10401814;28;19978;-51
2023/04/13 03:18:28;;;;;;;;;;;;;;;1.70;78.73;96969.22;10409488;28;20359;-51
2023/04/13 03:23:27;;;;;;;;;;;;;;;1.71;78.98;96970.06;10409798;28;20031;-51
2023/04/13 03:28:26;;;;;;;;;;;;;;;1.72;79.03;96977.78;10410429;28;19951;-52
2023/04/13 03:33:25;;;;;;;;;;;;;;;1.71;80.04;96970.94;10410578;28;19924;-52
2023/04/13 03:38:24;;;;;;;;;;;;;;;1.68;79.91;96976.00;10409272;28;20006;-52
2023/04/13 03:43:23;;;;;;;;;;;;;;;1.57;80.27;96971.47;10335987;28;19967;-52
2023/04/13 03:48:21;;;;;;;;;;;;;;;1.64;80.07;96981.88;10366436;28;19986;-52
2023/04/13 03:53:20;;;;;;;;;;;;;;;1.66;79.56;96993.00;10367497;28;20357;-52
2023/04/13 03:58:19;;;;;;;;;;;;;;;1.58;80.69;96983.44;10367729;28;20362;-52
2023/04/13 04:03:18;;;;;;;;;;;;;;;1.62;80.65;96970.75;10366985;28;19921;-52
2023/04/13 04:08:17;;;;;;;;;;;;;;;1.69;80.46;96971.72;10367334;28;20310;-50
2023/04/13 04:13:15;;;;;;;;;;;;;;;1.83;80.21;96982.25;10366737;28;20344;-52
2023/04/13 04:18:15;;;;;;;;;;;;;;;1.91;80.14;96971.34;10366746;28;19952;-51
2023/04/13 04:23:14;;;;;;;;;;;;;;;2.03;80.33;96983.53;10366392;28;20004;-51
2023/04/13 04:28:16;;;;;;;;;;;;;;;2.07;80.82;96977.66;10366419;28;20352;-52
2023/04/13 04:33:15;;;;;;;;;;;;;;;2.21;80.91;96982.16;10365631;28;20012;-50
2023/04/13 04:38:16;;;;;;;;;;;;;;;2.29;80.53;96985.72;10366130;28;19951;-52
2023/04/13 04:43:15;;;;;;;;;;;;;;;2.36;80.71;96983.31;10365255;28;20414;-51
2023/04/13 04:48:14;;;;;;;;;;;;;;;2.54;80.84;96987.91;10364841;28;20393;-52
2023/04/13 04:53:13;;;;;;;;;;;;;;;2.78;79.95;96987.47;10365241;28;19966;-51
2023/04/13 04:58:11;;;;;;;;;;;;;;;2.83;79.25;96979.88;10365302;28;19924;-51
2023/04/13 05:03:10;;;;;;;;;;;;;;;3.06;79.32;96981.97;10364575;28;20348;-52
2023/04/13 05:08:10;;;;;;;;;;;;;;;3.25;78.47;96981.41;10364948;28;20424;-49
2023/04/13 05:13:09;;;;;;;;;;;;;;;3.36;78.78;96982.41;10365111;28;19952;-52
2023/04/13 05:18:09;;;;;;;;;;;;;;;3.40;78.04;96986.75;10365061;28;19912;-51
2023/04/13 05:23:08;;;;;;;;;;;;;;;3.48;77.77;96980.88;10363971;28;20359;-52
2023/04/13 05:28:07;;;;;;;;;;;;;;;3.60;78.26;96983.63;10364520;28;19960;-51
2023/04/13 05:33:08;;;;;;;;;;;;;;;3.60;77.92;96996.44;10360645;28;20379;-51
2023/04/13 05:38:06;;;;;;;;;;;;;;;3.65;78.55;96989.66;10362850;28;19955;-52
2023/04/13 05:43:05;;;;;;;;;;;;;;;3.90;78.58;96993.44;10363958;28;19916;-51
2023/04/13 05:48:04;;;;;;;;;;;;;;;4.33;76.75;96972.53;10362578;28;20002;-52
2023/04/13 05:53:06;;;;;;;;;;;;;;;4.73;75.65;96981.50;10362872;28;19917;-52
2023/04/13 05:58:05;;;;;;;;;;;;;;;4.96;74.03;96974.03;10363739;28;20007;-52
2023/04/13 06:03:04;;;;;;;;;;;;;;;5.30;72.83;96974.31;10362625;28;20043;-52
2023/04/13 06:08:03;;;;;;;;;;;;;;;5.62;70.72;96971.06;10363054;28;19925;-52
2023/04/13 06:13:02;;;;;;;;;;;;;;;5.97;69.79;96964.38;10362274;28;19917;-53
2023/04/13 06:18:01;;;;;;;;;;;;;;;6.21;68.53;96961.91;10362616;28;20070;-53
2023/04/13 06:23:00;;;;;;;;;;;;;;;6.30;66.85;96949.03;10361745;28;20027;-52
2023/04/13 06:28:00;;;;;;;;;;;;;;;6.58;65.08;96947.38;10362369;28;19946;-52
2023/04/13 06:32:59;;;;;;;;;;;;;;;6.95;62.68;96942.28;10360821;28;19974;-52
2023/04/13 06:37:59;;;;;;;;;;;;;;;7.15;62.72;96937.97;10360931;28;19948;-53
2023/04/13 06:42:58;;;;;;;;;;;;;;;7.63;61.92;96943.09;10361468;28;19955;-52
2023/04/13 06:47:56;;;;;;;;;;;;;;;8.05;60.46;96936.91;10361341;28;19921;-52
2023/04/13 06:52:55;;;;;;;;;;;;;;;8.44;59.51;96945.34;10360299;28;19917;-52
2023/04/13 06:57:54;;;;;;;;;;;;;;;8.76;57.83;96946.84;10361392;28;19913;-52
2023/04/13 07:02:53;;;;;;;;;;;;;;;9.15;56.29;96947.44;10360884;28;20003;-52
2023/04/13 07:07:52;;;;;;;;;;;;;;;9.39;54.39;96938.63;10360549;28;20378;-52
2023/04/13 07:12:50;;;;;;;;;;;;;;;9.68;54.26;96943.53;10360770;28;19999;-52
2023/04/13 07:17:51;;;;;;;;;;;;;;;9.90;52.39;96940.69;10354255;28;19964;-53
2023/04/13 07:22:49;;;;;;;;;;;;;;;10.33;49.80;96934.97;10360078;28;20015;-53
2023/04/13 07:27:48;;;;;;;;;;;;;;;10.54;51.07;96929.50;10355535;28;19931;-53
2023/04/13 07:32:47;;;;;;;;;;;;;;;10.92;50.00;96920.31;10359925;28;20014;-52
2023/04/13 07:37:48;;;;;;;;;;;;;;;11.21;48.92;96922.44;10360641;28;19912;-52
2023/04/13 07:42:50;;;;;;;;;;;;;;;11.49;47.86;96910.72;10359648;28;19983;-53
2023/04/13 07:47:48;;;;;;;;;;;;;;;11.80;46.17;96903.19;10358283;28;20031;-53
2023/04/13 07:52:47;;;;;;;;;;;;;;;12.13;44.44;96893.84;10355628;28;19982;-53
2023/04/13 07:57:46;;;;;;;;;;;;;;;12.39;42.64;96889.84;10353967;28;20405;-53
2023/04/13 08:02:45;;;;;;;;;;;;;;;12.82;41.92;96889.72;10362548;28;20306;-54
2023/04/13 08:07:45;;;;;;;;;;;;;;;13.19;40.38;96882.75;10363399;28;20035;-54
2023/04/13 08:12:44;;;;;;;;;;;;;;;13.58;40.11;96865.25;10366960;28;20066;-54
2023/04/13 08:17:43;;;;;;;;;;;;;;;13.82;40.40;96857.66;10367124;28;19988;-54
2023/04/13 08:22:44;;;;;;;;;;;;;;;14.14;39.75;96862.78;10366095;28;20003;-53
2023/04/13 08:27:43;;;;;;;;;;;;;;;14.41;39.48;96858.50;10366157;28;20027;-53
2023/04/13 08:32:42;;;;;;;;;;;;;;;14.68;39.13;96844.63;10365174;28;19921;-53
2023/04/13 08:37:41;;;;;;;;;;;;;;;14.95;38.32;96842.91;10364486;28;20012;-54
2023/04/13 08:42:40;;;;;;;;;;;;;;;15.19;38.65;96842.09;10366957;28;20021;-53
2023/04/13 08:47:39;;;;;;;;;;;;;;;15.38;37.44;96826.63;10363609;28;19939;-53
2023/04/13 08:52:38;;;;;;;;;;;;;;;15.56;37.50;96824.28;10363003;28;20007;-53
2023/04/13 08:57:37;;;;;;;;;;;;;;;15.73;36.33;96821.03;10364531;28;19959;-53
2023/04/13 09:02:37;;;;;;;;;;;;;;;15.95;32.83;96810.66;10361239;28;19913;-54
2023/04/13 09:07:35;;;;;;;;;;;;;;;16.21;31.32;96817.53;10361977;28;20007;-55
2023/04/13 09:12:34;;;;;;;;;;;;;;;16.49;30.58;96812.94;10362242;28;20306;-54
2023/04/13 09:17:33;;;;;;;;;;;;;;;16.76;30.53;96814.50;10364316;28;19924;-55
2023/04/13 09:22:32;;;;;;;;;;;;;;;17.13;31.41;96813.84;10362735;28;19943;-55
2023/04/13 09:27:30;;;;;;;;;;;;;;;17.33;29.31;96806.00;10363749;28;19971;-54
2023/04/13 09:32:29;;;;;;;;;;;;;;;17.85;31.58;96807.25;10363677;28;19960;-55
2023/04/13 09:37:29;;;;;;;;;;;;;;;18.14;29.79;96804.13;10363520;28;19923;-55
2023/04/13 09:42:28;;;;;;;;;;;;;;;18.32;28.17;96796.31;10363858;28;20641;-55
2023/04/13 09:47:33;;;;;;;;;;;;;;;18.42;26.96;96787.06;10363531;28;20379;-55
2023/04/13 09:52:32;;;;;;;;;;;;;;;18.78;29.07;96779.22;10361502;28;19968;-55
2023/04/13 09:57:31;;;;;;;;;;;;;;;18.98;28.63;96770.31;10362776;28;19921;-55
2023/04/13 10:02:30;;;;;;;;;;;;;;;19.05;27.63;96770.88;10361958;28;19919;-54
2023/04/13 10:07:35;;;;;;;;;;;;;;;19.31;29.08;96759.00;10362526;28;20380;-54
2023/04/13 10:12:35;;;;;;;;;;;;;;;19.54;29.35;96759.59;10360648;28;20039;-54
2023/04/13 10:17:52;;;;;;;;;;;;;;;19.62;29.00;96754.78;10362845;28;20358;-55
2023/04/13 10:22:52;;;;;;;;;;;;;;;19.62;26.60;96757.41;10361675;28;20387;-54
2023/04/13 10:28:00;;;;;;;;;;;;;;;19.70;26.53;96757.88;10361665;28;20453;-54
2023/04/13 10:33:04;;;;;;;;;;;;;;;19.53;26.64;96744.72;10357030;28;20011;-54
2023/04/13 10:38:03;;;;;;;;;;;;;;;19.38;27.68;96744.59;10359217;28;20003;-54
2023/04/13 10:43:02;;;;;;;;;;;;;;;19.43;26.70;96745.19;10360790;28;20003;-54
2023/04/13 10:48:00;;;;;;;;;;;;;;;19.68;28.50;96743.09;10359041;28;19920;-55
2023/04/13 10:53:01;;;;;;;;;;;;;;;19.91;28.76;96739.19;10352675;28;19987;-54
2023/04/13 10:58:01;;;;;;;;;;;;;;;19.95;27.29;96735.47;10361596;28;19987;-54
2023/04/13 11:03:01;;;;;;;;;;;;;;;20.21;28.78;96734.00;10360433;28;20015;-54
2023/04/13 11:08:00;;;;;;;;;;;;;;;20.25;26.98;96731.13;10360574;28;20008;-54
2023/04/13 11:12:59;;;;;;;;;;;;;;;19.93;26.56;96626.75;10360421;28;19912;-54
2023/04/13 11:17:58;;;;;;;;;;;;;;;20.46;28.13;96702.75;10360910;28;19952;-54
2023/04/13 11:22:57;;;;;;;;;;;;;;;20.73;27.85;96706.50;10359535;28;20020;-54
2023/04/13 11:28:00;;;;;;;;;;;;;;;20.98;26.79;96690.91;10360482;28;19920;-54
2023/04/13 11:32:59;;;;;;;;;;;;;;;20.80;25.75;96682.34;10358256;28;20473;-55
2023/04/13 11:37:59;;;;;;;;;;;;;;;20.80;26.60;96677.06;10364273;28;19960;-54
2023/04/13 11:42:58;;;;;;;;;;;;;;;21.01;27.48;96672.28;10365333;28;20346;-55
2023/04/13 11:47:58;;;;;;;;;;;;;;;21.12;27.71;96676.91;10368113;28;20011;-54
2023/04/13 11:52:57;;;;;;;;;;;;;;;21.26;26.61;96673.47;10366919;28;20003;-54
2023/04/13 11:57:57;;;;;;;;;;;;;;;21.47;27.47;96677.41;10367643;28;19951;-54
2023/04/13 12:02:56;;;;;;;;;;;;;;;21.69;26.05;96676.94;10361305;28;20048;-55
2023/04/13 12:07:55;;;;;;;;;;;;;;;21.52;25.56;96664.78;10364955;28;19921;-55
2023/04/13 12:12:56;;;;;;;;;;;;;;;21.50;26.51;96661.41;10365004;28;20023;-54
2023/04/13 12:17:56;;;;;;;;;;;;;;;21.89;27.12;96678.28;10366918;28;19947;-54
2023/04/13 12:22:56;;;;;;;;;;;;;;;22.17;26.92;96668.63;10367171;28;20023;-55
2023/04/13 12:27:54;;;;;;;;;;;;;;;22.34;24.80;96655.16;10367605;28;19963;-54
2023/04/13 12:32:54;;;;;;;;;;;;;;;22.39;25.68;96649.59;10365240;28;19925;-54
2023/04/13 12:37:53;;;;;;;;;;;;;;;22.64;26.08;96651.41;10368290;28;19960;-54
2023/04/13 12:42:52;;;;;;;;;;;;;;;22.83;25.37;96631.69;10361790;28;20438;-54
2023/04/13 12:47:50;;;;;;;;;;;;;;;22.92;25.50;96623.13;10364083;28;20398;-55
2023/04/13 12:52:49;;;;;;;;;;;;;;;22.64;24.83;96632.06;10362005;28;20432;-54
2023/04/13 12:57:48;;;;;;;;;;;;;;;22.81;26.00;96623.84;10358651;28;19920;-54
2023/04/13 13:02:47;;;;;;;;;;;;;;;22.96;26.28;96621.97;10361022;28;19940;-54
2023/04/13 13:07:46;;;;;;;;;;;;;;;23.14;24.79;96617.19;10364237;28;20019;-55
2023/04/13 13:12:45;;;;;;;;;;;;;;;23.26;25.78;96611.03;10363183;28;19920;-55
2023/04/13 13:17:44;;;;;;;;;;;;;;;23.40;24.68;96604.78;10361085;28;20014;-54
2023/04/13 13:22:43;;;;;;;;;;;;;;;23.50;25.08;96608.47;10362921;28;20344;-54
2023/04/13 13:27:41;;;;;;;;;;;;;;;23.54;25.74;96615.25;10366647;28;19932;-54
2023/04/13 13:32:40;;;;;;;;;;;;;;;23.69;25.63;96608.00;10365662;28;19934;-54
2023/04/13 13:37:39;;;;;;;;;;;;;;;23.74;23.71;96603.22;10367801;28;19952;-54
2023/04/13 13:42:39;;;;;;;;;;;;;;;23.90;23.27;96591.50;10366688;28;19923;-55
2023/04/13 13:47:37;;;;;;;;;;;;;;;23.93;24.77;96578.88;10366868;28;19959;-54
2023/04/13 13:52:36;;;;;;;;;;;;;;;23.95;24.16;96584.06;10367545;28;19919;-54
2023/04/13 13:57:35;;;;;;;;;;;;;;;24.02;25.18;96574.69;10362075;28;19920;-54
2023/04/13 14:02:33;;;;;;;;;;;;;;;24.15;24.54;96586.09;10364959;28;20416;-54
2023/04/13 14:07:32;;;;;;;;;;;;;;;24.34;23.60;96569.69;10366048;28;20724;-54
2023/04/13 14:12:31;;;;;;;;;;;;;;;24.16;22.82;96571.03;10364908;28;20263;-54
2023/04/13 14:17:30;;;;;;;;;;;;;;;24.09;24.13;96567.13;10363499;28;19913;-55
2023/04/13 14:22:29;;;;;;;;;;;;;;;23.91;23.41;96559.63;10359716;28;20015;-54
2023/04/13 14:27:27;;;;;;;;;;;;;;;23.97;24.04;96563.59;10361891;28;20359;-55
2023/04/13 14:32:27;;;;;;;;;;;;;;;24.01;24.67;96555.31;10360080;28;19928;-55
2023/04/13 14:37:28;;;;;;;;;;;;;;;23.98;23.44;96558.19;10358108;28;20003;-54
2023/04/13 14:42:28;;;;;;;;;;;;;;;23.89;23.07;96542.09;10332855;28;20366;-54
2023/04/13 14:50:40;;;;;;;11.10;4.22;;;;;;;23.91;23.62;96556.97;10349249;27;20942;-55
2023/04/13 14:55:39;;;;;;;7.75;3.20;;;;;;;23.87;23.15;96544.06;10417166;28;20229;-55
2023/04/13 15:00:39;;;;;;;7.15;3.75;;;;;;;23.79;24.48;96552.53;10436282;28;20531;-55
2023/04/13 15:05:46;;;;;;;7.55;3.60;;;;;;;23.57;24.42;96550.63;10373184;28;20132;-55
2023/04/13 15:10:45;;;;;;;9.33;4.13;;;;;;;23.37;25.18;96558.19;10394203;28;20392;-56
2023/04/13 15:15:46;;;;;;;6.70;3.30;;;;;;;23.22;24.73;96544.22;10365712;28;20056;-54
2023/04/13 15:20:45;;;;;;;9.23;4.00;;;;;;;23.20;24.81;96556.72;10430495;28;20508;-55
2023/04/13 15:25:45;;;;;;;9.63;4.90;;;;;;;23.12;25.17;96559.09;10427957;28;20585;-55
2023/04/13 15:30:44;;;;;;;6.93;4.30;;;;;;;23.09;25.13;96543.44;10428929;28;20143;-55
2023/04/13 15:35:43;;;;;;;4.75;3.35;;;;;;;23.09;25.29;96559.31;10431318;28;20032;-54
2023/04/13 15:40:42;;;;;;;8.70;3.85;;;;;;;22.94;25.17;96561.22;10431351;28;20119;-54
2023/04/13 15:45:41;;;;;;;5.47;3.30;;;;;;;22.70;25.58;96562.91;10430502;28;20852;-55
2023/04/13 15:50:40;;;;;;;10.90;4.30;;;;;;;22.58;25.58;96567.22;10431302;28;20115;-55
2023/04/13 15:55:39;;;;;;;25.52;5.65;;;;;;;22.44;25.78;96556.75;10432462;28;20111;-54
2023/04/13 16:00:38;;;;;;;10.43;4.57;;;;;;;22.28;26.11;96562.22;10413692;28;20131;-54
2023/04/13 16:05:37;;;;;;;11.90;4.75;;;;;;;22.05;25.83;96556.66;10405308;28;20035;-54
2023/04/13 16:10:37;;;;;;;6.65;4.03;;;;;;;21.77;26.27;96560.25;10404283;28;20119;-54
2023/04/13 16:15:36;;;;;;;7.63;3.72;;;;;;;21.52;26.60;96566.25;10403873;28;20107;-54
2023/04/13 16:20:36;;;;;;;8.60;3.47;;;;;;;21.24;26.77;96560.13;10405207;28;20072;-55
2023/04/13 16:25:36;;;;;;;8.05;4.22;;;;;;;21.05;26.55;96570.91;10403924;28;20143;-54
2023/04/13 16:30:36;;;;;;;8.63;3.90;;;;;;;20.25;29.28;96538.81;10403581;28;20564;-54
2023/04/13 16:35:35;;;;;;;8.95;3.20;;;;;;;20.14;31.21;96587.78;10403710;28;20127;-54
2023/04/13 16:40:34;;;;;;;7.00;3.78;;;;;;;19.82;32.60;96593.97;10404918;28;20500;-54
2023/04/13 16:45:35;;;;;;;6.95;3.20;;;;;;;19.10;34.21;96557.63;10403762;28;20132;-54
2023/04/13 16:50:34;;;;;;;5.22;2.30;;;;;;;18.96;34.67;96603.06;10401398;28;20615;-54
2023/04/13 16:55:33;;;;;;;6.28;2.42;;;;;;;18.45;35.08;96578.56;10404207;28;20123;-54
2023/04/13 17:00:32;;;;;;;5.10;2.40;;;;;;;18.49;34.61;96614.25;10404026;28;20033;-53
2023/04/13 17:05:31;;;;;;;4.07;2.63;;;;;;;18.37;35.17;96615.72;10404802;28;20406;-53
2023/04/13 17:10:29;;;;;;;6.53;3.00;;;;;;;18.16;35.82;96618.50;10402313;28;20107;-53
2023/04/13 17:15:31;;;;;;;4.60;3.00;;;;;;;17.84;36.30;96619.22;10402415;28;20118;-53
2023/04/13 17:20:30;;;;;;;8.52;3.53;;;;;;;17.72;36.89;96639.81;10402504;28;20067;-53
2023/04/13 17:25:29;;;;;;;6.15;3.55;;;;;;;17.41;37.82;96635.19;10402156;28;20036;-52
2023/04/13 17:30:28;;;;;;;9.55;3.03;;;;;;;17.24;37.79;96643.81;10403634;28;20124;-53
2023/04/13 17:35:27;;;;;;;11.60;4.80;;;;;;;16.40;37.80;96540.97;10383775;28;20143;-52
2023/04/13 17:40:26;;;;;;;7.78;5.15;;;;;;;16.82;38.10;96659.69;10405605;28;20056;-53
2023/04/13 17:45:25;;;;;;;10.20;5.13;;;;;;;16.66;38.86;96673.41;10405318;28;20060;-54
2023/04/13 17:50:24;;;;;;;11.82;6.50;;;;;;;16.47;39.00;96673.34;10404890;28;20055;-53
2023/04/13 17:55:22;;;;;;;;;;;;;;;16.26;39.33;96680.31;10405221;28;20529;-53
2023/04/13 18:00:24;;;;;;;7.17;4.77;;;;;;;16.11;39.31;96695.78;10408892;28;19924;-53
2023/04/13 18:05:24;;;;;;;8.35;4.82;;;;;;;15.93;39.42;96707.81;10402008;28;20083;-54
2023/04/13 18:10:23;;;;;;;15.00;7.32;;;;;;;15.78;40.25;96714.47;10403949;28;20064;-53
2023/04/13 18:15:22;;;;;;;17.88;10.65;;;;;;;15.53;41.21;96702.34;10404867;28;20059;-53
2023/04/13 18:20:21;;;;;;;;;;;;;;;15.53;41.36;96723.25;10403540;28;20097;-53
2023/04/13 18:25:20;;;;;;;17.17;8.57;;;;;;;15.36;42.09;96723.00;10403600;28;19924;-53
2023/04/13 18:30:19;;;;;;;;;;;;;;;15.13;43.29;96727.34;10404825;28;20482;-53
2023/04/13 18:35:18;;;;;;;18.63;7.03;;;;;;;14.94;44.10;96721.88;10403082;28;19947;-53
2023/04/13 18:40:17;;;;;;;;;;;;;;;14.75;44.31;96726.88;10401466;28;20115;-53
2023/04/13 18:45:17;;;;;;;19.03;9.47;;;;;;;14.56;44.67;96724.00;10401295;28;19919;-53
2023/04/13 18:50:15;;;;;;;11.10;7.10;;;;;;;14.32;45.30;96730.91;10398765;28;20080;-52
2023/04/13 18:55:14;;;;;;;;;;;;;;;14.24;45.51;96725.09;10400035;28;20036;-53
2023/04/13 19:00:14;;;;;;;7.95;4.18;;;;;;;14.01;46.11;96727.53;10399550;28;19952;-53
2023/04/13 19:05:13;;;;;;;8.45;5.35;;;;;;;13.92;46.10;96728.72;10398860;28;20624;-53
2023/04/13 19:10:12;;;;;;;8.98;4.70;;;;;;;13.84;47.19;96735.91;10396562;28;20151;-53
2023/04/13 19:15:11;;;;;;;;;;;;;;;13.66;47.18;96727.75;10399989;28;20398;-53
2023/04/13 19:20:10;;;;;;;15.55;10.48;;;;;;;13.30;48.12;96690.53;10398916;28;19959;-52
2023/04/13 19:25:13;;;;;;;28.70;12.32;;;;;;;13.23;48.05;96696.81;10397581;28;21465;-53
2023/04/13 19:30:13;;;;;;;24.00;15.68;;;;;;;13.36;49.33;96719.88;10399653;28;20148;-54
2023/04/13 19:35:12;;;;;;;21.02;13.55;;;;;;;13.30;49.68;96738.28;10398478;28;20166;-53
2023/04/13 19:40:13;;;;;;;23.00;15.45;;;;;;;13.08;50.38;96732.81;10400617;28;20072;-53
2023/04/13 19:45:13;;;;;;;22.38;14.27;;;;;;;13.09;50.09;96741.47;10405789;28;20119;-53
2023/04/13 19:50:13;;;;;;;22.38;13.63;;;;;;;12.94;51.23;96743.59;10405696;28;20085;-54
2023/04/13 19:55:13;;;;;;;23.30;14.32;;;;;;;12.75;52.27;96738.94;10405422;28;20714;-53
2023/04/13 20:00:21;;;;;;;25.80;14.57;;;;;;;12.62;52.96;96741.00;10405650;28;20490;-53
2023/04/13 20:05:21;;;;;;;22.63;15.30;;;;;;;12.60;53.27;96727.16;10405630;28;20060;-53
2023/04/13 20:10:20;;;;;;;29.10;17.85;;;;;;;12.17;53.07;96673.56;10403336;28;20472;-53
2023/04/13 20:15:19;;;;;;;;;;;;;;;12.35;54.10;96721.72;10406172;28;20486;-50
2023/04/13 20:20:18;;;;;;;30.95;21.23;;;;;;;12.22;55.30;96726.31;10401421;28;20325;-52
2023/04/13 20:25:17;;;;;;;35.22;20.23;;;;;;;11.94;56.01;96684.53;10402429;28;20088;-53
2023/04/13 20:30:16;;;;;;;19.17;12.93;;;;;;;11.94;57.45;96718.31;10405318;28;20119;-52
2023/04/13 20:35:15;;;;;;;22.83;13.73;;;;;;;11.79;58.03;96720.38;10406096;28;20124;-53
2023/04/13 20:40:14;;;;;;;;;;;;;;;11.55;59.18;96733.91;10410733;28;20059;-54
2023/04/13 20:45:13;;;;;;;21.13;13.13;;;;;;;11.57;58.24;96732.13;10404907;28;19919;-53
2023/04/13 20:50:14;;;;;;;22.52;16.05;;;;;;;11.42;58.66;96730.72;10405148;28;20486;-53
2023/04/13 20:55:15;;;;;;;21.40;15.40;;;;;;;11.38;57.91;96729.91;10404650;28;20501;-53
2023/04/13 21:00:21;;;;;;;23.42;14.43;;;;;;;10.73;58.33;96636.00;10406975;28;20068;-52
2023/04/13 21:05:21;;;;;;;21.10;14.10;;;;;;;11.28;58.49;96719.75;10407048;28;20649;-53
2023/04/13 21:10:19;;;;;;;;;;;;;;;11.17;59.90;96717.38;10407327;28;20072;-53
2023/04/13 21:15:18;;;;;;;26.33;18.30;;;;;;;11.09;61.00;96706.28;10408146;28;20037;-53
2023/04/13 21:20:17;;;;;;;29.25;20.50;;;;;;;10.96;61.22;96703.94;10408471;28;20040;-53
2023/04/13 21:25:16;;;;;;;33.83;22.95;;;;;;;10.83;62.63;96702.44;10406364;28;20064;-51
2023/04/13 21:30:15;;;;;;;26.75;18.90;;;;;;;10.72;62.42;96700.03;10406589;28;20040;-51
2023/04/13 21:35:16;;;;;;;27.85;20.45;;;;;;;10.72;63.49;96693.97;10407164;28;20421;-51
2023/04/13 21:40:15;;;;;;;31.98;20.20;;;;;;;10.02;62.16;96575.09;10403243;28;20553;-49
2023/04/13 21:45:14;;;;;;;30.80;21.02;;;;;;;10.72;62.27;96704.38;10401933;28;20525;-51
2023/04/13 21:50:13;;;;;;;29.38;21.05;;;;;;;10.72;61.83;96699.19;10403218;28;20510;-52
2023/04/13 21:55:16;;;;;;;28.77;19.90;;;;;;;10.61;62.20;96682.09;10402922;28;20037;-51
2023/04/13 22:00:16;;;;;;;25.67;17.95;;;;;;;10.43;64.00;96697.13;10399843;28;20078;-50
2023/04/13 22:05:15;;;;;;;24.23;15.65;;;;;;;10.33;64.42;96693.81;10400344;28;20130;-50
2023/04/13 22:10:15;;;;;;;27.70;16.55;;;;;;;10.17;65.00;96709.63;10397783;28;20143;-49
2023/04/13 22:15:13;;;;;;;24.20;17.10;;;;;;;10.09;65.42;96695.06;10396576;28;20657;-51
2023/04/13 22:20:13;;;;;;;26.98;16.08;;;;;;;9.73;67.14;96656.75;10395798;28;20474;-51
2023/04/13 22:25:11;;;;;;;;;;;;;;;9.73;67.82;96674.03;10396602;28;20127;-49
2023/04/13 22:30:11;;;;;;;20.50;13.70;;;;;;;9.47;69.30;96677.03;10398837;28;19922;-50
2023/04/13 22:35:10;;;;;;;22.80;14.45;;;;;;;9.41;69.37;96671.91;10401607;28;20060;-49
2023/04/13 22:40:10;;;;;;;22.67;13.80;;;;;;;9.31;69.06;96671.19;10401424;28;20087;-50
2023/04/13 22:45:09;;;;;;;16.25;11.40;;;;;;;9.34;68.99;96655.59;10400535;28;20067;-52
2023/04/13 22:50:08;;;;;;;18.80;12.43;;;;;;;9.38;68.21;96654.69;10401267;28;20128;-52
2023/04/13 22:55:07;;;;;;;19.90;11.73;;;;;;;9.51;67.74;96658.81;10401176;28;20340;-50
2023/04/13 23:00:07;;;;;;;23.40;13.30;;;;;;;9.61;67.34;96654.38;10401315;28;20060;-50
2023/04/13 23:05:07;;;;;;;21.17;12.70;;;;;;;9.44;68.60;96664.09;10399998;28;20078;-50
2023/04/13 23:10:07;;;;;;;25.35;15.73;;;;;;;9.12;69.78;96634.31;10405686;28;20071;-50
2023/04/13 23:15:07;;;;;;;23.52;14.18;;;;;;;9.19;69.27;96651.47;10407620;28;20131;-50
2023/04/13 23:20:06;;;;;;;21.83;15.15;;;;;;;9.27;69.48;96652.19;10408126;28;20514;-50
2023/04/13 23:25:06;;;;;;;25.92;15.23;;;;;;;9.44;68.46;96666.69;10408136;28;20076;-50
2023/04/13 23:30:05;;;;;;;21.75;14.35;;;;;;;9.47;68.19;96669.25;10407396;28;20128;-50
2023/04/13 23:35:05;;;;;;;16.15;11.07;;;;;;;9.42;67.74;96637.34;10405928;28;20052;-50
2023/04/13 23:40:04;;;;;;;18.45;11.60;;;;;;;9.70;67.13;96658.53;10409855;28;20064;-50
2023/04/13 23:45:04;;;;;;;18.40;11.95;;;;;;;9.80;66.73;96647.16;10407172;28;20062;-51
2023/04/13 23:50:03;;;;;;;19.58;12.43;;;;;;;9.00;67.09;96512.88;10408085;28;20704;-51
2023/04/13 23:55:02;;;;;;;;;;;;;;;9.76;67.33;96646.34;10408136;28;20131;-51
